sensor_id;sensor_type;location;lat;lon;timestamp;temperature;humidity
16907;DHT22;8570;52.380;4.654;2023-04-25T00:04:44;7.30;99.90
16907;DHT22;8570;52.380;4.654;2023-04-25T00:09:48;7.30;99.90
16907;DHT22;8570;52.380;4.654;2023-04-25T00:14:52;7.30;99.90
16907;DHT22;8570;52.380;4.654;2023-04-25T00:19:54;7.30;99.90
16907;DHT22;8570;52.380;4.654;2023-04-25T00:30:00;7.90;99.90
16907;DHT22;8570;52.380;4.654;2023-04-25T00:35:03;7.20;99.90
16907;DHT22;8570;52.380;4.654;2023-04-25T00:40:07;7.20;99.90
16907;DHT22;8570;52.380;4.654;2023-04-25T00:45:13;7.20;99.90
16907;DHT22;8570;52.380;4.654;2023-04-25T00:50:15;7.20;99.90
16907;DHT22;8570;52.380;4.654;2023-04-25T00:55:19;7.20;99.90
16907;DHT22;8570;52.380;4.654;2023-04-25T01:00:21;7.20;99.90
16907;DHT22;8570;52.380;4.654;2023-04-25T01:15:29;7.20;99.90
16907;DHT22;8570;52.380;4.654;2023-04-25T01:20:32;7.00;99.90
16907;DHT22;8570;52.380;4.654;2023-04-25T01:25:37;7.00;99.90
16907;DHT22;8570;52.380;4.654;2023-04-25T01:30:39;7.00;99.90
16907;DHT22;8570;52.380;4.654;2023-04-25T01:35:42;7.10;99.90
16907;DHT22;8570;52.380;4.654;2023-04-25T01:40:46;7.00;99.90
16907;DHT22;8570;52.380;4.654;2023-04-25T01:45:49;7.00;99.90
16907;DHT22;8570;52.380;4.654;2023-04-25T01:50:51;7.00;99.90
16907;DHT22;8570;52.380;4.654;2023-04-25T01:55:55;7.00;99.90
16907;DHT22;8570;52.380;4.654;2023-04-25T02:00:57;7.00;99.90
16907;DHT22;8570;52.380;4.654;2023-04-25T02:05:59;7.00;99.90
16907;DHT22;8570;52.380;4.654;2023-04-25T04:12:10;6.60;99.90
16907;DHT22;8570;52.380;4.654;2023-04-25T04:17:12;6.40;99.90
16907;DHT22;8570;52.380;4.654;2023-04-25T04:22:14;6.30;99.90
16907;DHT22;8570;52.380;4.654;2023-04-25T04:27:18;6.30;99.90
16907;DHT22;8570;52.380;4.654;2023-04-25T04:32:20;6.30;99.90
16907;DHT22;8570;52.380;4.654;2023-04-25T04:37:23;6.30;99.90
16907;DHT22;8570;52.380;4.654;2023-04-25T04:42:27;6.40;99.90
16907;DHT22;8570;52.380;4.654;2023-04-25T04:47:29;6.40;99.90
16907;DHT22;8570;52.380;4.654;2023-04-25T04:52:31;6.50;99.90
16907;DHT22;8570;52.380;4.654;2023-04-25T04:57:35;6.50;99.90
16907;DHT22;8570;52.380;4.654;2023-04-25T05:02:37;6.50;99.90
16907;DHT22;8570;52.380;4.654;2023-04-25T05:07:39;6.60;99.90
16907;DHT22;8570;52.380;4.654;2023-04-25T05:12:43;6.60;99.90
16907;DHT22;8570;52.380;4.654;2023-04-25T05:17:45;6.60;99.90
16907;DHT22;8570;52.380;4.654;2023-04-25T05:22:46;6.60;99.90
16907;DHT22;8570;52.380;4.654;2023-04-25T05:27:50;6.70;99.90
16907;DHT22;8570;52.380;4.654;2023-04-25T05:32:53;6.70;99.90
16907;DHT22;8570;52.380;4.654;2023-04-25T05:37:54;6.70;99.90
16907;DHT22;8570;52.380;4.654;2023-04-25T05:42:58;6.70;99.90
16907;DHT22;8570;52.380;4.654;2023-04-25T05:47:59;6.80;99.90
16907;DHT22;8570;52.380;4.654;2023-04-25T05:53:01;6.90;99.90
16907;DHT22;8570;52.380;4.654;2023-04-25T05:58:05;6.90;99.90
16907;DHT22;8570;52.380;4.654;2023-04-25T06:03:07;6.90;99.90
16907;DHT22;8570;52.380;4.654;2023-04-25T06:08:10;7.00;99.90
16907;DHT22;8570;52.380;4.654;2023-04-25T06:13:13;7.00;99.90
16907;DHT22;8570;52.380;4.654;2023-04-25T06:18:16;7.00;99.90
16907;DHT22;8570;52.380;4.654;2023-04-25T06:23:18;7.10;99.90
16907;DHT22;8570;52.380;4.654;2023-04-25T06:28:23;7.10;99.90
16907;DHT22;8570;52.380;4.654;2023-04-25T06:33:25;7.10;99.90
16907;DHT22;8570;52.380;4.654;2023-04-25T06:38:27;7.10;99.90
16907;DHT22;8570;52.380;4.654;2023-04-25T06:43:30;7.10;99.90
16907;DHT22;8570;52.380;4.654;2023-04-25T06:48:34;7.10;99.90
16907;DHT22;8570;52.380;4.654;2023-04-25T06:53:37;7.10;99.90
16907;DHT22;8570;52.380;4.654;2023-04-25T06:58:40;7.10;99.90
16907;DHT22;8570;52.380;4.654;2023-04-25T07:03:42;7.10;99.90
16907;DHT22;8570;52.380;4.654;2023-04-25T07:08:44;7.20;99.90
16907;DHT22;8570;52.380;4.654;2023-04-25T07:13:48;7.30;99.90
16907;DHT22;8570;52.380;4.654;2023-04-25T07:18:49;7.40;99.90
16907;DHT22;8570;52.380;4.654;2023-04-25T07:23:51;7.40;99.90
16907;DHT22;8570;52.380;4.654;2023-04-25T07:28:55;7.50;99.90
16907;DHT22;8570;52.380;4.654;2023-04-25T07:33:57;7.50;99.90
16907;DHT22;8570;52.380;4.654;2023-04-25T07:38:58;7.50;99.90
16907;DHT22;8570;52.380;4.654;2023-04-25T07:44:02;7.60;99.90
16907;DHT22;8570;52.380;4.654;2023-04-25T07:49:04;7.60;99.90
16907;DHT22;8570;52.380;4.654;2023-04-25T07:54:06;7.80;99.90
16907;DHT22;8570;52.380;4.654;2023-04-25T07:59:09;7.70;99.90
16907;DHT22;8570;52.380;4.654;2023-04-25T08:04:11;7.70;99.90
16907;DHT22;8570;52.380;4.654;2023-04-25T08:09:13;7.70;99.90
16907;DHT22;8570;52.380;4.654;2023-04-25T08:14:17;7.70;99.90
16907;DHT22;8570;52.380;4.654;2023-04-25T08:19:19;7.80;99.90
16907;DHT22;8570;52.380;4.654;2023-04-25T08:24:21;8.00;99.90
16907;DHT22;8570;52.380;4.654;2023-04-25T08:29:24;8.00;99.90
16907;DHT22;8570;52.380;4.654;2023-04-25T08:34:26;8.10;99.90
16907;DHT22;8570;52.380;4.654;2023-04-25T08:39:28;8.20;99.90
16907;DHT22;8570;52.380;4.654;2023-04-25T08:44:33;8.40;99.90
16907;DHT22;8570;52.380;4.654;2023-04-25T08:49:35;8.40;99.90
16907;DHT22;8570;52.380;4.654;2023-04-25T08:54:41;8.20;99.90
16907;DHT22;8570;52.380;4.654;2023-04-25T08:59:46;8.10;99.90
16907;DHT22;8570;52.380;4.654;2023-04-25T09:04:48;8.20;99.90
16907;DHT22;8570;52.380;4.654;2023-04-25T09:09:51;8.30;99.90
16907;DHT22;8570;52.380;4.654;2023-04-25T09:15:05;8.70;99.90
16907;DHT22;8570;52.380;4.654;2023-04-25T09:20:09;9.00;99.90
16907;DHT22;8570;52.380;4.654;2023-04-25T09:25:12;9.40;99.90
16907;DHT22;8570;52.380;4.654;2023-04-25T09:30:17;9.80;99.90
16907;DHT22;8570;52.380;4.654;2023-04-25T09:35:23;10.20;99.90
16907;DHT22;8570;52.380;4.654;2023-04-25T09:40:26;10.40;99.90
16907;DHT22;8570;52.380;4.654;2023-04-25T09:45:31;10.70;99.90
16907;DHT22;8570;52.380;4.654;2023-04-25T09:50:32;10.80;99.90
16907;DHT22;8570;52.380;4.654;2023-04-25T09:55:35;10.70;99.90
16907;DHT22;8570;52.380;4.654;2023-04-25T10:00:39;10.60;99.90
16907;DHT22;8570;52.380;4.654;2023-04-25T10:05:42;10.30;99.90
16907;DHT22;8570;52.380;4.654;2023-04-25T10:10:45;10.20;99.90
16907;DHT22;8570;52.380;4.654;2023-04-25T10:15:49;10.40;99.90
16907;DHT22;8570;52.380;4.654;2023-04-25T10:20:54;10.70;99.90
16907;DHT22;8570;52.380;4.654;2023-04-25T10:25:56;11.00;99.90
16907;DHT22;8570;52.380;4.654;2023-04-25T10:46:18;11.50;99.90
16907;DHT22;8570;52.380;4.654;2023-04-25T10:51:22;11.40;99.90
16907;DHT22;8570;52.380;4.654;2023-04-25T10:56:26;11.20;99.90
16907;DHT22;8570;52.380;4.654;2023-04-25T11:01:36;11.20;99.90
16907;DHT22;8570;52.380;4.654;2023-04-25T11:06:58;11.30;99.90
16907;DHT22;8570;52.380;4.654;2023-04-25T11:12:02;11.50;99.90
16907;DHT22;8570;52.380;4.654;2023-04-25T11:17:05;11.70;99.90
16907;DHT22;8570;52.380;4.654;2023-04-25T11:22:07;11.80;99.90
16907;DHT22;8570;52.380;4.654;2023-04-25T11:47:28;12.10;99.90
16907;DHT22;8570;52.380;4.654;2023-04-25T11:52:41;11.80;99.90
16907;DHT22;8570;52.380;4.654;2023-04-25T11:57:43;11.70;99.90
16907;DHT22;8570;52.380;4.654;2023-04-25T12:02:50;11.70;99.90
16907;DHT22;8570;52.380;4.654;2023-04-25T12:07:52;12.00;99.90
16907;DHT22;8570;52.380;4.654;2023-04-25T12:12:54;12.30;99.90
16907;DHT22;8570;52.380;4.654;2023-04-25T16:15:27;12.70;94.80
16907;DHT22;8570;52.380;4.654;2023-04-25T16:20:30;12.50;95.10
16907;DHT22;8570;52.380;4.654;2023-04-25T16:25:32;12.30;94.80
16907;DHT22;8570;52.380;4.654;2023-04-25T16:30:34;12.20;94.90
16907;DHT22;8570;52.380;4.654;2023-04-25T16:35:37;12.20;95.50
16907;DHT22;8570;52.380;4.654;2023-04-25T16:40:39;12.10;95.20
16907;DHT22;8570;52.380;4.654;2023-04-25T16:45:41;11.90;95.40
16907;DHT22;8570;52.380;4.654;2023-04-25T16:50:44;11.50;96.60
16907;DHT22;8570;52.380;4.654;2023-04-25T16:55:46;11.20;97.00
16907;DHT22;8570;52.380;4.654;2023-04-25T17:00:48;11.00;97.40
16907;DHT22;8570;52.380;4.654;2023-04-25T17:05:52;10.90;97.60
16907;DHT22;8570;52.380;4.654;2023-04-25T17:10:56;10.80;97.80
16907;DHT22;8570;52.380;4.654;2023-04-25T17:21:03;10.60;99.90
16907;DHT22;8570;52.380;4.654;2023-04-25T17:26:05;10.40;99.90
16907;DHT22;8570;52.380;4.654;2023-04-25T17:31:07;10.20;98.30
16907;DHT22;8570;52.380;4.654;2023-04-25T17:36:11;10.10;99.90
16907;DHT22;8570;52.380;4.654;2023-04-25T17:41:13;10.00;99.90
16907;DHT22;8570;52.380;4.654;2023-04-25T17:46:15;9.80;99.90
16907;DHT22;8570;52.380;4.654;2023-04-25T17:51:18;9.70;99.90
16907;DHT22;8570;52.380;4.654;2023-04-25T17:56:20;9.50;99.90
16907;DHT22;8570;52.380;4.654;2023-04-25T18:01:22;9.40;99.90
16907;DHT22;8570;52.380;4.654;2023-04-25T18:06:28;9.40;99.90
16907;DHT22;8570;52.380;4.654;2023-04-25T18:11:32;9.30;99.90
16907;DHT22;8570;52.380;4.654;2023-04-25T18:16:34;9.20;99.90
16907;DHT22;8570;52.380;4.654;2023-04-25T18:21:38;9.20;99.90
16907;DHT22;8570;52.380;4.654;2023-04-25T18:26:40;9.20;99.90
16907;DHT22;8570;52.380;4.654;2023-04-25T18:31:43;9.10;99.90
16907;DHT22;8570;52.380;4.654;2023-04-25T18:36:46;9.00;99.90
16907;DHT22;8570;52.380;4.654;2023-04-25T18:41:48;9.00;99.90
16907;DHT22;8570;52.380;4.654;2023-04-25T18:46:50;9.00;99.90
16907;DHT22;8570;52.380;4.654;2023-04-25T18:51:53;8.90;99.90
16907;DHT22;8570;52.380;4.654;2023-04-25T18:56:56;8.90;99.90
16907;DHT22;8570;52.380;4.654;2023-04-25T19:02:00;8.80;99.90
16907;DHT22;8570;52.380;4.654;2023-04-25T19:07:05;8.90;99.90
16907;DHT22;8570;52.380;4.654;2023-04-25T19:12:07;8.80;99.90
16907;DHT22;8570;52.380;4.654;2023-04-25T19:17:09;8.80;99.90
16907;DHT22;8570;52.380;4.654;2023-04-25T19:22:13;8.70;99.90
16907;DHT22;8570;52.380;4.654;2023-04-25T19:27:15;8.60;99.90
16907;DHT22;8570;52.380;4.654;2023-04-25T19:32:17;8.60;99.90
16907;DHT22;8570;52.380;4.654;2023-04-25T19:37:21;8.60;99.90
16907;DHT22;8570;52.380;4.654;2023-04-25T21:03:14;7.80;99.90
16907;DHT22;8570;52.380;4.654;2023-04-25T21:08:17;7.80;99.90
16907;DHT22;8570;52.380;4.654;2023-04-25T21:13:20;7.60;99.90
16907;DHT22;8570;52.380;4.654;2023-04-25T21:18:22;7.50;99.90
16907;DHT22;8570;52.380;4.654;2023-04-25T21:23:25;7.40;99.90
16907;DHT22;8570;52.380;4.654;2023-04-25T21:28:27;7.30;99.90
16907;DHT22;8570;52.380;4.654;2023-04-25T21:33:29;7.30;99.90
16907;DHT22;8570;52.380;4.654;2023-04-25T21:38:33;7.30;99.90
16907;DHT22;8570;52.380;4.654;2023-04-25T21:43:35;7.30;99.90
16907;DHT22;8570;52.380;4.654;2023-04-25T21:48:40;7.20;99.90
16907;DHT22;8570;52.380;4.654;2023-04-25T21:53:44;7.20;99.90
16907;DHT22;8570;52.380;4.654;2023-04-25T21:58:46;7.10;99.90
16907;DHT22;8570;52.380;4.654;2023-04-25T22:03:48;7.20;99.90
16907;DHT22;8570;52.380;4.654;2023-04-25T22:08:52;7.10;99.90
16907;DHT22;8570;52.380;4.654;2023-04-25T22:13:53;7.10;99.90
16907;DHT22;8570;52.380;4.654;2023-04-25T22:18:55;7.10;99.90
16907;DHT22;8570;52.380;4.654;2023-04-25T22:23:59;7.10;99.90
16907;DHT22;8570;52.380;4.654;2023-04-25T22:29:01;7.10;99.90
16907;DHT22;8570;52.380;4.654;2023-04-25T22:34:03;7.10;99.90
16907;DHT22;8570;52.380;4.654;2023-04-25T22:39:06;7.10;99.90
16907;DHT22;8570;52.380;4.654;2023-04-25T22:44:09;7.10;99.90
16907;DHT22;8570;52.380;4.654;2023-04-25T22:49:11;7.00;99.90
16907;DHT22;8570;52.380;4.654;2023-04-25T22:54:14;7.00;99.90
16907;DHT22;8570;52.380;4.654;2023-04-25T22:59:16;7.00;99.90
16907;DHT22;8570;52.380;4.654;2023-04-25T23:04:20;6.90;99.90
16907;DHT22;8570;52.380;4.654;2023-04-25T23:09:23;6.90;99.90
16907;DHT22;8570;52.380;4.654;2023-04-25T23:14:25;6.90;99.90
16907;DHT22;8570;52.380;4.654;2023-04-25T23:19:27;6.90;99.90
16907;DHT22;8570;52.380;4.654;2023-04-25T23:24:30;6.90;99.90
16907;DHT22;8570;52.380;4.654;2023-04-25T23:29:32;6.90;99.90
16907;DHT22;8570;52.380;4.654;2023-04-25T23:34:34;6.90;99.90
16907;DHT22;8570;52.380;4.654;2023-04-25T23:39:37;6.90;99.90
16907;DHT22;8570;52.380;4.654;2023-04-25T23:44:39;6.90;99.90
16907;DHT22;8570;52.380;4.654;2023-04-25T23:49:42;6.90;99.90
16907;DHT22;8570;52.380;4.654;2023-04-25T23:54:45;6.80;99.90
16907;DHT22;8570;52.380;4.654;2023-04-25T23:59:47;6.90;99.90
